Terminal Aerodrome Forecast
Issued by NWS

Home | Current Version | Previous Version | Text Only | Print | Product List | Glossary On
Versions: 1 2 3 4 5 6 7 8 9 10 11 12 13
000
FTUS46 KSTO 271100
TAFMHR
TAF
KMHR 271139Z 2712/2812 VRB05KT P6SM SCT250
     FM271400 14005KT P6SM SCT060 BKN120
     FM272000 25011KT P6SM VCSH BKN050 BKN080
     FM280600 VRB05KT P6SM VCSH BKN100=

USA.gov is the U.S. government's official web portal to all federal, state and local government web resources and services.